Latest Weather Observations for Canberra

IDN60901

Issued at 8:11 pm EDT Tuesday 24 January 2017 (issued every 10 minutes, with the page automatically refreshed every 10 minutes)

About weather observations | Map of Canberra area stations | Latest observations for Canberra area | Other Formats
Station Details ID: 070351 Name: CANBERRA AIRPORT Lat: -35.31 Lon: 149.20 Height: 577.05 m
Data from the previous 72 hours. | See also: Recent months at Canberra
Date/Time
EDT
Temp
°C
App
Temp
°C
Dew
Point
°C
Rel
Hum
%
Delta-T
°C
Wind Press
QNH
hPa
Press
MSL
hPa
Rain since
9am
mm
Dir  Spd
km/h
Gust
km/h
Spd
kts
Gust
kts
24/08:00pm 26.9 26.6 17.4 56 6.1 NW 15 19 8 10 1014.7 1012.1 0.0
24/07:30pm 27.6 26.8 17.2 53 6.7 NW 17 20 9 11 1014.1 1011.5 0.0
24/07:00pm 28.1 27.8 17.3 52 7.0 NW 15 22 8 12 1013.6 1011.0 0.0
24/06:30pm 28.7 27.4 16.9 48 7.6 WNW 19 28 10 15 1013.2 1010.6 0.0
24/06:00pm 28.9 27.5 17.1 49 7.6 W 20 30 11 16 1012.8 1010.2 0.0
24/05:30pm 29.3 27.8 16.8 47 8.0 WNW 20 28 11 15 1012.5 1009.8 0.0
24/05:00pm 29.7 28.4 17.2 47 8.1 WNW 20 28 11 15 1012.3 1009.7 0.0
24/04:30pm 29.7 28.4 17.2 47 8.1 WNW 20 30 11 16 1012.3 1009.7 0.0
24/04:00pm 30.5 29.7 17.2 44 8.6 W 17 26 9 14 1012.3 1009.7 0.0
24/03:30pm 29.9 28.5 17.0 45 8.3 WNW 20 30 11 16 1012.3 1009.7 0.0
24/03:00pm 28.8 27.2 16.4 47 7.9 W 20 35 11 19 1012.2 1009.6 0.0
24/02:30pm 27.4 26.1 17.3 54 6.5 WNW 20 32 11 17 1011.9 1009.3 0.0
24/02:00pm 29.2 26.0 16.4 46 8.2 W 28 43 15 23 1011.6 1009.0 0.0
24/01:30pm 30.9 26.9 16.1 41 9.4 W 32 41 17 22 1011.5 1008.9 0.0
24/01:00pm 31.2 27.3 16.4 41 9.5 WNW 32 43 17 23 1011.4 1008.8 0.0
24/12:30pm 31.0 26.6 16.6 42 9.3 WNW 35 56 19 30 1011.5 1008.9 0.0
24/12:02pm 31.0 27.3 17.0 43 9.0 W 32 50 17 27 1011.3 1008.7 0.0
24/12:00pm 31.2 27.4 17.1 42 9.1 W 33 50 18 27 1011.4 1008.8 0.0
24/11:44am 32.3 29.0 17.0 40 9.9 WNW 30 48 16 26 1011.1 1008.4 0.0
24/11:30am 32.5 30.4 17.2 40 10.0 WNW 24 35 13 19 1011.0 1008.3 0.0
24/11:00am 30.1 27.2 17.9 48 8.0 WNW 30 43 16 23 1011.0 1008.3 0.0
24/10:30am 29.0 26.5 18.1 51 7.1 WNW 28 41 15 22 1010.7 1008.0 0.0
24/10:00am 26.8 26.1 21.1 71 3.9 NW 26 37 14 20 1010.3 1007.7 0.0
24/09:30am 25.6 26.3 21.5 78 2.8 NNW 20 30 11 16 1010.0 1007.4 0.0
24/09:00am 24.7 25.2 21.2 81 2.4 NNW 20 30 11 16 1010.4 1007.8 1.6
24/08:30am 23.7 23.7 21.0 85 1.8 NNW 22 28 12 15 1010.7 1008.0 1.6
24/08:00am 23.4 23.6 20.5 84 1.9 NW 20 30 11 16 1010.8 1008.1 1.4
24/07:30am 23.2 23.2 20.2 83 2.0 NW 20 28 11 15 1010.5 1007.9 1.4
24/07:00am 22.8 21.2 20.0 84 1.8 NNW 28 35 15 19 1010.1 1007.5 1.4
24/06:30am 22.4 20.9 20.3 88 1.4 NNW 28 37 15 20 1010.1 1007.5 1.4
24/06:00am 22.3 21.2 20.2 88 1.4 NNW 26 33 14 18 1009.9 1007.3 1.4
24/05:30am 22.3 19.6 20.4 89 1.3 NW 35 50 19 27 1009.9 1007.3 1.4
24/05:19am 23.3 22.5 20.1 82 2.1 NW 24 43 13 23 1009.9 1007.3 1.2
24/05:00am 22.7 24.2 20.6 88 1.4 WNW 13 19 7 10 1009.6 1007.0 1.2
24/04:30am 22.7 22.8 20.4 87 1.5 WNW 20 30 11 16 1009.2 1006.5 1.2
24/04:00am 26.8 24.3 18.1 59 5.7 NW 28 37 15 20 1008.6 1006.0 0.0
24/03:30am 26.7 23.6 18.3 60 5.5 NNW 32 41 17 22 1008.5 1005.9 0.0
24/03:00am 26.6 23.8 18.2 60 5.5 NNW 30 37 16 20 1008.2 1005.6 0.0
24/02:30am 26.7 23.7 18.6 61 5.3 NW 32 48 17 26 1008.8 1006.1 0.0
24/02:28am 26.5 23.9 18.6 62 5.2 NW 30 48 16 26 1008.8 1006.1 0.0
24/02:00am 23.7 25.6 19.0 75 3.1 SE 7 9 4 5 1008.9 1006.2 0.0
24/01:30am 23.8 25.9 18.9 74 3.2 NNE 6 7 3 4 1009.1 1006.4 0.0
24/01:00am 24.3 26.4 18.9 72 3.5 NNE 6 9 3 5 1009.3 1006.6 0.0
24/12:30am 24.1 26.1 19.2 74 3.2 ENE 7 9 4 5 1009.6 1007.0 0.0
24/12:00am 24.0 25.6 19.1 74 3.2 NE 9 9 5 5 1010.0 1007.4 0.0
 
Date/Time
EDT
Temp
°C
App
Temp
°C
Dew
Point
°C
Rel
Hum
%
Delta-T
°C
Wind Press
QNH
hPa
Press
MSL
hPa
Rain since
9am
mm
Dir  Spd
km/h
Gust
km/h
Spd
kts
Gust
kts
23/11:30pm 24.7 26.6 18.9 70 3.8 NNE 7 9 4 5 1010.2 1007.6 0.0
23/11:00pm 25.6 27.1 19.0 67 4.3 NNW 9 11 5 6 1010.3 1007.7 0.0
23/10:30pm 26.4 26.8 19.0 63 4.9 N 15 17 8 9 1010.5 1007.9 0.0
23/10:00pm 26.6 27.0 19.0 63 5.0 NNW 15 20 8 11 1011.1 1008.4 0.0
23/09:30pm 26.9 27.2 18.7 60 5.4 NNW 15 24 8 13 1010.9 1008.2 0.0
23/09:00pm 27.0 27.2 18.6 60 5.5 NW 15 19 8 10 1010.7 1008.0 0.0
23/08:30pm 27.4 27.9 18.4 58 5.9 WNW 13 19 7 10 1010.2 1007.6 0.0
23/08:00pm 27.6 27.1 18.6 58 5.9 NNW 19 24 10 13 1010.0 1007.4 0.0
23/07:30pm 28.2 26.1 18.9 57 6.1 NNW 28 33 15 18 1010.0 1007.4 0.0
23/07:00pm 29.3 25.8 17.8 50 7.5 NNW 33 43 18 23 1009.6 1007.0 0.0
23/06:30pm 29.5 25.0 18.3 51 7.3 NNW 39 50 21 27 1009.3 1006.6 0.0
23/06:28pm 29.6 25.4 18.1 50 7.5 NNW 37 50 20 27 1009.3 1006.6 0.0
23/06:23pm 31.2 28.5 17.5 44 8.9 NW 28 48 15 26 1009.1 1006.4 0.0
23/06:00pm 33.2 32.2 16.5 36 10.8 NW 17 26 9 14 1008.8 1006.1 0.0
23/05:30pm 31.9 30.7 16.2 38 10.1 WNW 17 22 9 12 1008.6 1006.0 0.0
23/05:00pm 30.6 29.0 16.6 43 9.0 WNW 20 30 11 16 1009.0 1006.3 0.0
23/04:30pm 33.0 30.6 15.5 35 11.1 WNW 22 32 12 17 1008.9 1006.2 0.0
23/04:00pm 34.1 29.7 15.1 32 12.1 NW 32 41 17 22 1009.1 1006.4 0.0
23/03:30pm 34.9 30.0 13.7 28 13.2 NW 32 41 17 22 1009.7 1007.1 0.0
23/03:18pm 36.2 32.4 14.8 28 13.6 NNW 28 50 15 27 1009.8 1007.2 0.0
23/03:00pm 34.0 34.0 17.2 36 11.0 NNW 13 26 7 14 1010.0 1007.4 0.0
23/02:30pm 32.9 29.1 16.7 38 10.5 NNW 32 48 17 26 1010.7 1008.0 0.0
23/02:24pm 31.6 28.3 17.1 41 9.4 N 30 48 16 26 1010.7 1008.0 0.0
23/02:00pm 32.7 29.6 16.5 37 10.5 NW 28 43 15 23 1011.0 1008.3 0.0
23/01:30pm 33.6 30.3 16.0 34 11.3 NW 28 39 15 21 1011.3 1008.7 0.0
23/01:01pm 33.8 30.9 17.1 37 10.9 WNW 28 46 15 25 1011.9 1009.3 0.0
23/01:00pm 33.9 30.9 16.7 35 11.2 WNW 28 39 15 21 1011.9 1009.3 0.0
23/12:30pm 32.3 29.4 16.2 38 10.3 NW 26 41 14 22 1012.3 1009.7 0.0
23/12:00pm 30.9 30.3 15.7 39 9.6 W 13 32 7 17 1013.0 1010.4 0.0
23/11:30am 28.9 28.4 15.8 45 8.3 WSW 13 19 7 10 1013.4 1010.8 0.0
23/11:00am 28.1 27.5 15.7 46 7.8 WSW 13 20 7 11 1013.9 1011.3 0.0
23/10:30am 26.7 26.4 15.4 50 7.0 W 11 15 6 8 1014.3 1011.7 0.0
23/10:00am 25.4 25.5 14.5 51 6.7 NW 7 15 4 8 1014.6 1012.0 0.0
23/09:30am 23.6 24.1 14.9 58 5.3 NW 6 11 3 6 1014.9 1012.3 0.0
23/09:00am 21.8 22.5 14.4 63 4.4 NW 4 9 2 5 1015.1 1012.5 0.0
23/08:30am 20.6 20.6 14.3 67 3.8 SSE 7 11 4 6 1015.1 1012.5 0.0
23/08:00am 19.1 19.0 13.9 72 3.1 SE 7 9 4 5 1015.2 1012.6 0.0
23/07:30am 17.7 17.3 14.2 80 2.1 SSE 9 13 5 7 1015.0 1012.4 0.0
23/07:00am 17.0 17.1 13.9 82 1.8 S 6 7 3 4 1014.8 1012.2 0.0
23/06:30am 14.8 14.9 13.8 94 0.6 E 6 7 3 4 1014.7 1012.1 0.0
23/06:00am 14.3 13.9 12.5 89 1.0 NNE 6 9 3 5 1014.5 1011.9 0.0
23/05:30am 15.0 15.7 13.5 91 0.9 E 2 6 1 3 1014.5 1011.9 0.0
23/05:00am 15.1 15.1 13.6 91 0.9 E 6 7 3 4 1014.4 1011.8 0.0
23/04:30am 14.3 13.9 12.5 89 1.0 WSW 6 7 3 4 1014.4 1011.8 0.0
23/04:00am 14.9 14.8 13.4 91 0.9 N 6 7 3 4 1014.4 1011.8 0.0
23/03:30am 15.3 15.6 13.3 88 1.1 ENE 4 9 2 5 1014.7 1012.1 0.0
23/03:00am 15.4 15.3 13.8 90 0.9 E 7 7 4 4 1014.9 1012.3 0.0
23/02:30am 15.5 15.0 13.9 90 0.9 ESE 9 11 5 6 1015.0 1012.4 0.0
23/02:00am 15.7 15.1 13.5 87 1.3 SE 9 11 5 6 1015.1 1012.5 0.0
23/01:30am 15.9 14.6 13.6 86 1.3 ESE 13 15 7 8 1015.2 1012.6 0.0
23/01:00am 17.2 16.2 14.5 84 1.6 SE 13 17 7 9 1015.5 1012.9 0.0
23/12:30am 17.4 16.9 13.7 79 2.2 ESE 9 11 5 6 1015.7 1013.2 0.0
23/12:00am 18.9 18.6 14.4 75 2.7 ESE 9 11 5 6 1016.0 1013.5 0.0
 
Date/Time
EDT
Temp
°C
App
Temp
°C
Dew
Point
°C
Rel
Hum
%
Delta-T
°C
Wind Press
QNH
hPa
Press
MSL
hPa
Rain since
9am
mm
Dir  Spd
km/h
Gust
km/h
Spd
kts
Gust
kts
22/11:30pm 19.2 19.2 14.2 73 3.0 ESE 7 11 4 6 1015.9 1013.4 0.0
22/11:00pm 20.3 20.6 14.4 69 3.5 SSE 6 11 3 6 1015.7 1013.2 0.0
22/10:30pm 20.9 20.6 14.5 67 3.8 ENE 9 15 5 8 1015.7 1013.2 0.0
22/10:00pm 21.4 21.2 14.6 65 4.1 NE 9 13 5 7 1015.6 1013.0 0.0
22/09:30pm 22.3 22.4 14.4 61 4.8 N 7 13 4 7 1015.3 1012.7 0.0
22/09:00pm 23.1 19.6 14.4 58 5.3 E 26 33 14 18 1014.7 1012.1 0.0
22/08:30pm 24.4 20.5 14.5 54 6.0 ENE 28 37 15 20 1014.3 1011.7 0.0
22/08:00pm 26.7 24.4 13.1 43 8.2 N 17 28 9 15 1014.0 1011.4 0.0
22/07:30pm 29.8 26.1 6.5 23 12.7 NNW 15 20 8 11 1013.5 1010.9 0.0
22/07:00pm 30.6 26.8 7.7 24 12.8 NNW 17 24 9 13 1013.2 1010.6 0.0
22/06:30pm 30.8 27.5 7.9 24 12.9 N 15 24 8 13 1013.1 1010.5 0.0
22/06:00pm 31.0 26.5 8.7 25 12.7 NNW 22 30 12 16 1013.0 1010.4 0.0
22/05:30pm 31.5 28.5 9.1 25 12.9 NW 15 28 8 15 1013.2 1010.6 0.0
22/05:00pm 31.8 28.1 8.1 23 13.4 N 17 28 9 15 1013.5 1010.9 0.0
22/04:30pm 31.8 29.7 8.1 23 13.4 NW 9 17 5 9 1013.8 1011.2 0.0
22/04:00pm 31.3 28.1 8.3 24 13.1 WNW 15 26 8 14 1013.8 1011.2 0.0
22/03:30pm 30.4 26.5 7.0 23 12.9 N 17 24 9 13 1014.0 1011.4 0.0
22/03:00pm 31.1 28.4 8.8 25 12.7 WNW 13 28 7 15 1014.5 1011.9 0.0
22/02:30pm 30.0 27.7 9.0 27 12.0 NNW 11 19 6 10 1014.9 1012.3 0.0
22/02:00pm 29.3 26.0 9.4 29 11.4 NW 17 26 9 14 1015.2 1012.6 0.0
22/01:30pm 28.2 25.0 8.5 29 11.0 WNW 15 26 8 14 1015.6 1013.0 0.0
22/01:00pm 26.9 25.2 9.7 34 9.8 W 9 15 5 8 1016.0 1013.5 0.0
22/12:30pm 26.2 24.3 10.4 37 9.1 WNW 11 17 6 9 1016.5 1013.9 0.0
22/12:00pm 24.3 23.0 11.3 44 7.5 WNW 9 15 5 8 1017.0 1014.4 0.0
22/11:30am 23.2 22.0 11.6 48 6.7 NW 9 15 5 8 1017.3 1014.8 0.0
22/11:00am 22.2 21.2 12.2 53 5.8 WNW 9 13 5 7 1017.6 1015.1 0.0
22/10:30am 20.3 19.4 11.2 56 5.1 ESE 7 11 4 6 1018.0 1015.4 0.0
22/10:00am 19.3 18.3 11.1 59 4.6 W 7 11 4 6 1018.3 1015.7 0.0
22/09:30am 19.2 18.4 11.0 59 4.6 SSE 6 13 3 7 1018.6 1016.0 0.0
22/09:00am 18.0 17.1 11.3 65 3.7 SW 7 11 4 6 1018.9 1016.4 0.0
22/08:30am 16.6 16.6 11.1 70 3.0 E 2 7 1 4 1019.1 1016.6 0.0
22/08:00am 16.0 15.6 11.0 72 2.7 SE 4 11 2 6 1018.9 1016.4 0.0
22/07:30am 15.8 14.8 11.0 73 2.6 SSE 7 9 4 5 1018.7 1016.1 0.0
22/07:00am 15.5 14.5 11.1 75 2.4 S 7 9 4 5 1018.7 1016.1 0.0
22/06:30am 15.3 15.8 11.5 78 2.1 CALM 0 9 0 5 1018.4 1015.8 0.0
22/06:00am 15.3 14.6 11.3 77 2.2 NE 6 7 3 4 1018.4 1015.8 0.0
22/05:30am 15.3 14.6 11.3 77 2.2 ENE 6 7 3 4 1018.2 1015.6 0.0
22/05:00am 15.2 13.6 11.6 79 2.0 E 11 15 6 8 1017.8 1015.3 0.0
22/04:30am 15.1 13.5 11.7 80 1.9 ENE 11 15 6 8 1017.6 1015.1 0.0
22/04:00am 15.4 13.5 11.8 79 2.0 ENE 13 17 7 9 1017.5 1015.0 0.0
22/03:30am 15.6 13.8 12.0 79 2.0 E 13 17 7 9 1017.5 1015.0 0.0
22/03:00am 15.8 14.0 12.0 78 2.1 E 13 15 7 8 1017.6 1015.1 0.0
22/02:30am 15.9 13.6 11.7 76 2.3 E 15 20 8 11 1017.8 1015.3 0.0
22/02:00am 16.0 14.1 11.8 76 2.3 ESE 13 17 7 9 1017.8 1015.3 0.0
22/01:30am 15.7 14.6 11.9 78 2.1 ESE 9 13 5 7 1018.0 1015.4 0.0
22/01:00am 15.3 14.2 11.9 80 1.9 E 9 13 5 7 1018.0 1015.4 0.0
22/12:32am 15.2 14.1 11.8 80 1.9 E 9 13 5 7 1018.2 1015.6 0.0
22/12:30am 15.2 14.1 11.8 80 1.9 E 9 13 5 7 1018.2 1015.6 0.0
22/12:00am 15.4 13.8 11.6 78 2.1 ESE 11 13 6 7 1018.1 1015.5 0.0
 
Date/Time
EDT
Temp
°C
App
Temp
°C
Dew
Point
°C
Rel
Hum
%
Delta-T
°C
Wind Press
QNH
hPa
Press
MSL
hPa
Rain since
9am
mm
Dir  Spd
km/h
Gust
km/h
Spd
kts
Gust
kts
21/11:47pm 15.3 13.7 11.7 79 2.0 ESE 11 19 6 10 1018.1 1015.5 0.0
21/11:30pm 15.2 14.0 11.6 79 2.0 ESE 9 13 5 7 1018.0 1015.4 0.0
21/11:00pm 15.4 13.8 11.4 77 2.2 ESE 11 17 6 9 1017.5 1015.0 0.0
21/10:30pm 15.9 13.8 11.3 74 2.5 E 13 20 7 11 1017.4 1014.9 0.0
21/10:00pm 16.3 13.5 11.2 72 2.8 ESE 17 30 9 16 1017.3 1014.8 0.0
21/09:30pm 16.7 14.2 11.2 70 3.1 E 15 28 8 15 1016.8 1014.2 0.0
21/09:00pm 17.4 12.8 11.0 66 3.5 E 26 37 14 20 1016.0 1013.5 0.0
21/08:30pm 18.6 14.0 11.2 62 4.1 E 26 37 14 20 1015.2 1012.6 0.0

Latest Capital City Observations: Canberra | Sydney | Melbourne | Brisbane | Adelaide | Perth | Hobart | Darwin

Other Formats:

Comma delimited format used in spreadsheet applications
http://www.bom.gov.au/fwo/IDN60903/IDN60903.94926.axf

JavaScript Object Notation format (JSON) in row-major order
http://www.bom.gov.au/fwo/IDN60903/IDN60903.94926.json